createdAt,value
2019-03-23T00:01:20.142Z,33.23
2019-03-23T00:03:50.695Z,33.07
2019-03-23T00:06:30.399Z,34.40
2019-03-23T00:08:53.072Z,36.60
2019-03-23T00:11:23.464Z,34.60
2019-03-23T00:13:54.092Z,30.33
2019-03-23T00:16:25.162Z,31.53
2019-03-23T00:18:55.751Z,32.97
2019-03-23T00:21:26.370Z,36.17
2019-03-23T00:23:56.609Z,31.07
2019-03-23T00:26:27.183Z,31.87
2019-03-23T00:28:57.707Z,32.87
2019-03-23T00:31:28.295Z,32.17
2019-03-23T00:33:58.630Z,31.80
2019-03-23T00:36:29.035Z,30.47
2019-03-23T00:38:59.585Z,29.87
2019-03-23T00:41:29.862Z,30.70
2019-03-23T00:44:00.419Z,30.73
2019-03-23T00:46:30.938Z,30.20
2019-03-23T00:49:01.645Z,31.33
2019-03-23T00:51:32.199Z,30.07
2019-03-23T00:54:02.448Z,33.73
2019-03-23T00:56:33.404Z,29.10
2019-03-23T00:59:04.249Z,30.87
2019-03-23T01:01:35.168Z,31.53
2019-03-23T01:04:05.947Z,31.27
2019-03-23T01:06:36.261Z,30.57
2019-03-23T01:09:08.163Z,30.47
2019-03-23T01:11:38.748Z,32.57
2019-03-23T01:14:08.969Z,28.20
2019-03-23T01:16:39.226Z,37.27
2019-03-23T01:19:09.479Z,33.53
2019-03-23T01:21:40.035Z,36.57
2019-03-23T01:24:10.735Z,32.80
2019-03-23T01:26:40.988Z,32.10
2019-03-23T01:29:11.535Z,35.87
2019-03-23T01:31:42.081Z,38.63
2019-03-23T01:34:12.339Z,41.83
2019-03-23T01:36:42.608Z,41.67
2019-03-23T01:39:12.994Z,39.90
2019-03-23T01:41:43.615Z,45.27
2019-03-23T01:44:14.733Z,45.00
2019-03-23T01:46:45.299Z,37.57
2019-03-23T01:49:15.626Z,47.63
2019-03-23T01:51:45.951Z,39.37
2019-03-23T01:54:16.456Z,36.27
2019-03-23T01:56:46.772Z,35.87
2019-03-23T01:59:17.339Z,34.60
2019-03-23T02:01:48.114Z,37.70
2019-03-23T02:04:18.619Z,41.70
2019-03-23T02:06:49.231Z,39.90
2019-03-23T02:09:19.504Z,56.23
2019-03-23T02:11:49.757Z,78.40
2019-03-23T02:14:20.142Z,88.30
2019-03-23T02:16:50.734Z,86.90
2019-03-23T02:19:21.467Z,70.90
2019-03-23T02:21:51.683Z,59.83
2019-03-23T02:24:22.116Z,59.80
2019-03-23T02:26:52.706Z,53.63
2019-03-23T02:29:23.440Z,54.93
2019-03-23T02:31:53.954Z,48.27
2019-03-23T02:34:25.026Z,50.90
2019-03-23T02:36:55.473Z,52.80
2019-03-23T02:39:25.779Z,54.87
2019-03-23T02:41:56.294Z,52.70
2019-03-23T02:44:26.655Z,47.83
2019-03-23T02:46:57.105Z,49.27
2019-03-23T02:49:27.845Z,45.40
2019-03-23T02:51:58.653Z,44.17
2019-03-23T02:54:29.023Z,43.97
2019-03-23T02:57:00.276Z,43.30
2019-03-23T02:59:30.610Z,40.50
2019-03-23T03:02:00.919Z,40.57
2019-03-23T03:04:31.595Z,39.27
2019-03-23T03:07:02.035Z,38.47
2019-03-23T03:09:33.254Z,35.67
2019-03-23T03:12:04.155Z,38.27
2019-03-23T03:14:34.399Z,38.57
2019-03-23T03:17:04.918Z,35.63
2019-03-23T03:19:35.337Z,35.90
2019-03-23T03:22:05.791Z,37.27
2019-03-23T03:24:36.325Z,36.73
2019-03-23T03:27:06.663Z,35.77
2019-03-23T03:29:37.038Z,35.40
2019-03-23T03:32:07.453Z,33.70
2019-03-23T03:34:37.762Z,32.53
2019-03-23T03:37:08.248Z,34.97
2019-03-23T03:39:38.595Z,32.60
2019-03-23T03:42:08.934Z,32.67
2019-03-23T03:44:39.444Z,35.43
2019-03-23T03:47:10.294Z,33.33
2019-03-23T03:49:40.543Z,35.80
2019-03-23T03:52:11.784Z,31.63
2019-03-23T03:54:42.415Z,33.30
2019-03-23T03:57:12.783Z,29.27
2019-03-23T03:59:43.649Z,34.43
2019-03-23T04:02:14.492Z,33.23
2019-03-23T04:04:45.125Z,33.73
2019-03-23T04:07:15.428Z,34.43
2019-03-23T04:09:45.846Z,34.00
2019-03-23T04:12:16.197Z,32.27
2019-03-23T04:14:46.734Z,32.73
2019-03-23T04:17:17.239Z,31.77
2019-03-23T04:19:47.484Z,34.57
2019-03-23T04:22:17.875Z,32.63
2019-03-23T04:24:48.136Z,32.77
2019-03-23T04:27:18.644Z,38.23
2019-03-23T04:29:48.933Z,35.53
2019-03-23T04:32:19.433Z,31.23
2019-03-23T04:34:49.952Z,29.83
2019-03-23T04:37:20.762Z,30.33
2019-03-23T04:39:51.333Z,31.67
2019-03-23T04:42:21.581Z,31.70
2019-03-23T04:44:52.146Z,29.73
2019-03-23T04:47:22.528Z,33.73
2019-03-23T04:49:52.758Z,34.90
2019-03-23T04:52:23.065Z,32.40
2019-03-23T04:54:53.791Z,29.83
2019-03-23T04:57:24.349Z,30.00
2019-03-23T04:59:55.406Z,32.10
2019-03-23T05:02:25.855Z,31.00
2019-03-23T05:04:56.140Z,29.63
2019-03-23T05:07:28.798Z,31.70
2019-03-23T05:09:59.059Z,32.67
2019-03-23T05:12:29.362Z,31.67
2019-03-23T05:15:00.414Z,30.10
2019-03-23T05:17:30.728Z,29.93
2019-03-23T05:20:01.788Z,30.37
2019-03-23T05:22:32.483Z,30.00
2019-03-23T05:25:03.047Z,31.67
2019-03-23T05:27:33.642Z,37.23
2019-03-23T05:30:04.771Z,30.73
2019-03-23T05:32:35.393Z,26.53
2019-03-23T05:35:06.273Z,31.90
2019-03-23T05:37:36.578Z,30.13
2019-03-23T05:40:07.212Z,28.80
2019-03-23T05:42:37.542Z,31.97
2019-03-23T05:45:08.346Z,28.47
2019-03-23T05:47:39.279Z,32.23
2019-03-23T05:50:10.090Z,36.80
2019-03-23T05:52:40.400Z,32.70
2019-03-23T05:55:10.822Z,32.80
2019-03-23T05:57:41.454Z,30.97
2019-03-23T06:00:14.815Z,31.83
2019-03-23T06:02:45.059Z,30.33
2019-03-23T06:05:15.699Z,31.53
2019-03-23T06:07:46.011Z,33.77
2019-03-23T06:10:16.415Z,36.20
2019-03-23T06:12:46.637Z,31.77
2019-03-23T06:15:17.466Z,31.43
2019-03-23T06:17:47.995Z,32.87
2019-03-23T06:20:18.653Z,29.83
2019-03-23T06:22:48.878Z,29.73
2019-03-23T06:25:19.391Z,33.00
2019-03-23T06:27:49.705Z,32.17
2019-03-23T06:30:20.238Z,32.37
2019-03-23T06:32:50.605Z,32.70
2019-03-23T06:35:20.946Z,32.97
2019-03-23T06:37:51.294Z,32.27
2019-03-23T06:40:21.863Z,28.47
2019-03-23T06:42:59.763Z,33.30
2019-03-23T06:45:24.114Z,30.93
2019-03-23T06:47:54.340Z,29.33
2019-03-23T06:50:24.631Z,34.37
2019-03-23T06:52:55.458Z,33.40
2019-03-23T06:55:26.229Z,29.37
2019-03-23T06:57:56.896Z,35.03
2019-03-23T07:00:27.141Z,34.37
2019-03-23T07:02:57.997Z,33.53
2019-03-23T07:05:28.771Z,34.50
2019-03-23T07:07:59.141Z,30.67
2019-03-23T07:10:29.390Z,31.30
2019-03-23T07:12:59.667Z,35.17
2019-03-23T07:15:30.244Z,34.73
2019-03-23T07:18:00.591Z,37.27
2019-03-23T07:20:30.922Z,34.57
2019-03-23T07:23:01.144Z,33.70
2019-03-23T07:25:31.702Z,40.77
2019-03-23T07:28:02.069Z,33.93
2019-03-23T07:30:32.610Z,33.80
2019-03-23T07:33:03.500Z,32.37
2019-03-23T07:35:34.183Z,33.63
2019-03-23T07:38:04.534Z,31.47
2019-03-23T07:40:35.447Z,30.67
2019-03-23T07:43:05.776Z,33.23
2019-03-23T07:45:36.626Z,31.87
2019-03-23T07:48:07.399Z,29.33
2019-03-23T07:50:38.247Z,32.07
2019-03-23T07:53:08.578Z,68.40
2019-03-23T07:55:38.839Z,31.47
2019-03-23T07:58:09.183Z,31.40
2019-03-23T08:00:41.002Z,33.43
2019-03-23T08:03:11.724Z,30.50
2019-03-23T08:05:42.342Z,32.37
2019-03-23T08:08:13.274Z,32.00
2019-03-23T08:10:44.117Z,35.80
2019-03-23T08:13:14.566Z,29.43
2019-03-23T08:15:45.399Z,34.27
2019-03-23T08:18:16.706Z,32.77
2019-03-23T08:20:47.250Z,33.23
2019-03-23T08:23:17.755Z,32.00
2019-03-23T08:25:48.407Z,31.13
2019-03-23T08:28:18.690Z,29.53
2019-03-23T08:30:49.183Z,29.97
2019-03-23T08:33:20.635Z,30.17
2019-03-23T08:35:50.967Z,31.37
2019-03-23T08:38:21.402Z,33.07
2019-03-23T08:40:51.662Z,31.10
2019-03-23T08:43:21.926Z,30.80
2019-03-23T08:45:52.251Z,33.90
2019-03-23T08:48:22.559Z,31.07
2019-03-23T08:50:52.826Z,32.07
2019-03-23T08:53:23.072Z,33.00
2019-03-23T08:55:53.321Z,36.20
2019-03-23T08:58:30.783Z,33.20
2019-03-23T09:01:01.759Z,32.00
2019-03-23T09:03:32.056Z,32.73
2019-03-23T09:06:02.745Z,35.33
2019-03-23T09:08:33.261Z,36.27
2019-03-23T09:11:03.725Z,32.17
2019-03-23T09:13:40.491Z,33.80
2019-03-23T09:16:06.679Z,30.40
2019-03-23T09:18:38.778Z,33.13
2019-03-23T09:21:09.201Z,34.33
2019-03-23T09:23:39.594Z,33.10
2019-03-23T09:26:10.045Z,31.10
2019-03-23T09:28:40.530Z,32.87
2019-03-23T09:31:11.098Z,32.63
2019-03-23T09:33:41.693Z,31.33
2019-03-23T09:36:12.040Z,32.37
2019-03-23T09:38:42.865Z,29.87
2019-03-23T09:41:13.783Z,31.47
2019-03-23T09:43:44.398Z,30.73
2019-03-23T09:46:14.822Z,33.13
2019-03-23T09:48:45.565Z,33.50
2019-03-23T09:51:16.143Z,34.70
2019-03-23T09:53:46.498Z,31.77
2019-03-23T09:56:17.114Z,28.90
2019-03-23T09:58:47.821Z,33.93
2019-03-23T10:01:18.554Z,29.63
2019-03-23T10:03:49.146Z,29.43
2019-03-23T10:06:19.449Z,27.60
2019-03-23T10:08:49.782Z,26.93
2019-03-23T10:11:20.122Z,26.67
2019-03-23T10:13:50.414Z,28.03
2019-03-23T10:16:20.730Z,26.90
2019-03-23T10:18:51.261Z,26.00
2019-03-23T10:21:25.658Z,24.23
2019-03-23T10:23:56.314Z,26.70
2019-03-23T10:26:26.738Z,26.13
2019-03-23T10:28:57.011Z,29.00
2019-03-23T10:31:27.374Z,27.40
2019-03-23T10:33:58.525Z,26.77
2019-03-23T10:36:29.019Z,27.23
2019-03-23T10:38:59.365Z,28.40
2019-03-23T10:41:30.008Z,31.83
2019-03-23T10:44:00.680Z,32.80
2019-03-23T10:46:31.366Z,28.70
2019-03-23T10:49:04.882Z,27.50
2019-03-23T10:51:33.983Z,28.57
2019-03-23T10:54:04.441Z,29.17
2019-03-23T10:56:34.939Z,31.73
2019-03-23T10:59:05.742Z,30.30
2019-03-23T11:01:36.203Z,29.80
2019-03-23T11:04:06.754Z,26.60
2019-03-23T11:06:37.357Z,29.77
2019-03-23T11:09:08.242Z,26.83
2019-03-23T11:11:38.490Z,27.40
2019-03-23T11:14:09.263Z,29.50
2019-03-23T11:16:39.907Z,26.70
2019-03-23T11:19:13.606Z,28.90
2019-03-23T11:21:42.727Z,29.30
2019-03-23T11:24:13.190Z,27.57
2019-03-23T11:26:45.290Z,26.67
2019-03-23T11:29:18.427Z,26.37
2019-03-23T11:31:50.047Z,27.40
2019-03-23T11:34:20.583Z,28.63
2019-03-23T11:36:53.021Z,24.73
2019-03-23T11:39:23.658Z,25.70
2019-03-23T11:41:54.067Z,25.53
2019-03-23T11:44:24.703Z,25.20
2019-03-23T11:46:54.981Z,28.17
2019-03-23T11:49:25.697Z,27.53
2019-03-23T11:51:56.388Z,37.97
2019-03-23T11:54:26.954Z,27.70
2019-03-23T11:56:57.836Z,25.17
2019-03-23T11:59:28.166Z,30.53
2019-03-23T12:01:58.671Z,39.47
2019-03-23T12:04:29.050Z,23.60
2019-03-23T12:06:59.389Z,24.37
2019-03-23T12:09:29.654Z,22.00
2019-03-23T12:12:00.422Z,19.93
2019-03-23T12:14:30.683Z,22.97
2019-03-23T12:17:02.455Z,23.00
2019-03-23T12:19:32.694Z,21.60
2019-03-23T12:22:03.317Z,27.27
2019-03-23T12:24:33.584Z,19.23
2019-03-23T12:27:03.953Z,18.90
2019-03-23T12:29:34.210Z,18.57
2019-03-23T12:32:04.791Z,20.77
2019-03-23T12:34:35.226Z,19.07
2019-03-23T12:37:05.734Z,22.10
2019-03-23T12:39:36.332Z,20.90
2019-03-23T12:42:06.669Z,20.83
2019-03-23T12:44:37.194Z,20.53
2019-03-23T12:47:07.521Z,21.73
2019-03-23T12:49:37.767Z,21.00
2019-03-23T12:52:08.368Z,24.63
2019-03-23T12:54:38.922Z,25.13
2019-03-23T12:57:09.302Z,25.97
2019-03-23T12:59:48.447Z,22.77
2019-03-23T13:02:19.182Z,24.60
2019-03-23T13:04:49.510Z,23.07
2019-03-23T13:07:20.085Z,22.33
2019-03-23T13:09:50.433Z,22.83
2019-03-23T13:12:20.994Z,23.83
2019-03-23T13:14:51.301Z,22.13
2019-03-23T13:17:21.552Z,25.40
2019-03-23T13:19:52.457Z,25.87
2019-03-23T13:22:22.797Z,21.43
2019-03-23T13:24:53.357Z,24.43
2019-03-23T13:27:23.673Z,24.77
2019-03-23T13:29:54.250Z,21.47
2019-03-23T13:32:24.703Z,27.33
2019-03-23T13:34:55.543Z,23.67
2019-03-23T13:37:25.918Z,21.70
2019-03-23T13:39:57.419Z,22.97
2019-03-23T13:42:27.971Z,28.37
2019-03-23T13:44:58.339Z,30.73
2019-03-23T13:47:29.110Z,31.53
2019-03-23T13:49:59.690Z,29.00
2019-03-23T13:52:32.285Z,28.90
2019-03-23T13:55:05.855Z,31.33
2019-03-23T13:57:36.178Z,31.33
2019-03-23T14:00:07.157Z,30.67
2019-03-23T14:02:37.534Z,33.23
2019-03-23T14:05:15.673Z,31.00
2019-03-23T14:07:41.968Z,28.20
2019-03-23T14:10:12.662Z,29.43
2019-03-23T14:12:43.488Z,34.53
2019-03-23T14:15:14.466Z,35.73
2019-03-23T14:17:45.254Z,36.23
2019-03-23T14:20:15.722Z,39.10
2019-03-23T14:22:46.372Z,36.03
2019-03-23T14:25:16.910Z,34.70
2019-03-23T14:27:47.328Z,36.67
2019-03-23T14:30:17.895Z,34.67
2019-03-23T14:32:48.516Z,37.30
2019-03-23T14:35:18.803Z,36.80
2019-03-23T14:37:50.183Z,38.53
2019-03-23T14:40:23.830Z,36.57
2019-03-23T14:42:54.173Z,40.53
2019-03-23T14:45:26.776Z,38.03
2019-03-23T14:47:57.398Z,44.57
2019-03-23T14:50:27.975Z,45.27
2019-03-23T14:52:58.431Z,39.97
2019-03-23T14:55:28.839Z,39.43
2019-03-23T14:57:59.136Z,41.50
2019-03-23T15:00:35.529Z,38.57
2019-03-23T15:03:06.130Z,36.80
2019-03-23T15:05:36.671Z,40.80
2019-03-23T15:08:07.398Z,46.23
2019-03-23T15:10:37.997Z,40.00
2019-03-23T15:13:08.329Z,41.23
2019-03-23T15:15:39.439Z,42.83
2019-03-23T15:18:09.753Z,41.10
2019-03-23T15:20:40.505Z,36.83
2019-03-23T15:23:11.082Z,42.37
2019-03-23T15:25:41.411Z,42.00
2019-03-23T15:28:11.775Z,39.83
2019-03-23T15:30:42.009Z,42.73
2019-03-23T15:33:12.599Z,41.17
2019-03-23T15:35:43.037Z,39.27
2019-03-23T15:38:13.354Z,39.00
2019-03-23T15:40:43.702Z,42.17
2019-03-23T15:43:14.018Z,41.70
2019-03-23T15:45:44.250Z,40.70
2019-03-23T15:48:14.508Z,44.43
2019-03-23T15:50:44.825Z,41.37
2019-03-23T15:53:18.434Z,40.77
2019-03-23T15:55:48.951Z,39.57
2019-03-23T15:58:19.530Z,40.43
2019-03-23T16:00:50.009Z,39.73
2019-03-23T16:03:20.513Z,42.03
2019-03-23T16:05:51.159Z,46.77
2019-03-23T16:08:21.425Z,43.03
2019-03-23T16:10:51.993Z,40.87
2019-03-23T16:13:22.394Z,36.53
2019-03-23T16:15:52.939Z,39.97
2019-03-23T16:18:23.814Z,39.23
2019-03-23T16:20:54.083Z,37.93
2019-03-23T16:23:24.365Z,39.07
2019-03-23T16:25:55.056Z,41.10
2019-03-23T16:28:25.797Z,42.57
2019-03-23T16:30:56.117Z,40.93
2019-03-23T16:33:26.411Z,41.43
2019-03-23T16:35:56.674Z,36.73
2019-03-23T16:38:26.909Z,40.67
2019-03-23T16:40:57.499Z,39.23
2019-03-23T16:43:27.756Z,38.00
2019-03-23T16:45:58.034Z,41.70
2019-03-23T16:48:28.303Z,40.37
2019-03-23T16:50:59.143Z,37.90
2019-03-23T16:53:29.389Z,42.93
2019-03-23T16:55:59.978Z,39.27
2019-03-23T16:58:30.633Z,43.93
2019-03-23T17:01:01.442Z,39.23
2019-03-23T17:03:32.238Z,39.17
2019-03-23T17:06:02.555Z,40.23
2019-03-23T17:08:32.822Z,40.57
2019-03-23T17:11:03.073Z,41.17
2019-03-23T17:13:33.397Z,43.27
2019-03-23T17:16:04.018Z,53.63
2019-03-23T17:18:34.543Z,43.37
2019-03-23T17:21:04.994Z,39.83
2019-03-23T17:23:35.571Z,43.77
2019-03-23T17:26:06.185Z,38.33
2019-03-23T17:28:36.717Z,39.47
2019-03-23T17:31:07.056Z,39.63
2019-03-23T17:33:37.747Z,37.80
2019-03-23T17:36:08.622Z,43.07
2019-03-23T17:38:38.928Z,41.93
2019-03-23T17:41:10.366Z,46.10
2019-03-23T17:43:41.028Z,42.93
2019-03-23T17:46:11.561Z,43.73
2019-03-23T17:48:42.070Z,42.03
2019-03-23T17:51:12.866Z,42.27
2019-03-23T17:53:43.476Z,49.17
2019-03-23T17:56:13.797Z,43.77
2019-03-23T17:58:44.164Z,43.57
2019-03-23T18:01:19.726Z,39.33
2019-03-23T18:03:48.481Z,44.23
2019-03-23T18:06:19.028Z,38.00
2019-03-23T18:08:49.419Z,43.00
2019-03-23T18:11:19.842Z,38.40
2019-03-23T18:13:50.230Z,39.70
2019-03-23T18:16:20.758Z,43.80
2019-03-23T18:18:51.170Z,38.20
2019-03-23T18:21:21.678Z,44.47
2019-03-23T18:23:52.198Z,43.47
2019-03-23T18:26:22.626Z,41.40
2019-03-23T18:28:52.934Z,39.13
2019-03-23T18:31:23.338Z,42.13
2019-03-23T18:33:53.926Z,45.93
2019-03-23T18:36:24.201Z,43.47
2019-03-23T18:38:54.675Z,51.07
2019-03-23T18:41:24.911Z,41.17
2019-03-23T18:43:55.357Z,47.30
2019-03-23T18:46:29.632Z,49.80
2019-03-23T18:48:59.906Z,47.63
2019-03-23T18:51:30.511Z,49.60
2019-03-23T18:54:00.825Z,45.60
2019-03-23T18:56:31.110Z,43.17
2019-03-23T18:59:01.827Z,59.00
2019-03-23T19:01:32.094Z,58.50
2019-03-23T19:04:02.410Z,45.33
2019-03-23T19:06:32.678Z,51.57
2019-03-23T19:09:03.595Z,46.73
2019-03-23T19:11:34.008Z,42.03
2019-03-23T19:14:04.493Z,36.03
2019-03-23T19:16:35.052Z,45.13
2019-03-23T19:19:05.978Z,49.17
2019-03-23T19:21:36.295Z,41.67
2019-03-23T19:24:06.717Z,75.63
2019-03-23T19:26:37.258Z,72.33
2019-03-23T19:29:07.537Z,71.60
2019-03-23T19:31:38.439Z,82.20
2019-03-23T19:34:08.708Z,95.30
2019-03-23T19:36:39.834Z,115.37
2019-03-23T19:39:10.423Z,91.23
2019-03-23T19:41:40.991Z,82.10
2019-03-23T19:44:11.560Z,74.23
2019-03-23T19:46:41.852Z,54.07
2019-03-23T19:49:12.200Z,48.00
2019-03-23T19:51:42.480Z,43.27
2019-03-23T19:54:13.355Z,45.00
2019-03-23T19:56:43.633Z,47.63
2019-03-23T19:59:14.233Z,46.17
2019-03-23T20:01:44.495Z,50.77
2019-03-23T20:04:14.922Z,47.60
2019-03-23T20:06:45.340Z,46.50
2019-03-23T20:09:16.254Z,45.97
2019-03-23T20:11:46.531Z,46.30
2019-03-23T20:14:17.134Z,40.53
2019-03-23T20:16:47.850Z,46.10
2019-03-23T20:19:18.165Z,44.53
2019-03-23T20:21:48.438Z,48.27
2019-03-23T20:24:19.247Z,45.23
2019-03-23T20:26:49.808Z,49.47
2019-03-23T20:29:20.099Z,54.13
2019-03-23T20:31:51.035Z,58.73
2019-03-23T20:34:21.725Z,58.47
2019-03-23T20:36:52.591Z,53.63
2019-03-23T20:39:22.857Z,44.73
2019-03-23T20:41:53.113Z,44.83
2019-03-23T20:44:23.567Z,41.07
2019-03-23T20:46:54.158Z,43.87
2019-03-23T20:49:24.654Z,44.70
2019-03-23T20:51:55.489Z,42.97
2019-03-23T20:54:25.917Z,43.57
2019-03-23T20:56:56.186Z,44.93
2019-03-23T20:59:26.454Z,46.53
2019-03-23T21:01:56.990Z,43.33
2019-03-23T21:04:27.384Z,44.30
2019-03-23T21:06:58.202Z,49.93
2019-03-23T21:09:29.406Z,53.87
2019-03-23T21:11:59.787Z,53.67
2019-03-23T21:14:30.134Z,53.47
2019-03-23T21:17:00.469Z,50.77
2019-03-23T21:19:30.763Z,53.53
2019-03-23T21:22:01.798Z,48.30
2019-03-23T21:24:32.340Z,60.07
2019-03-23T21:27:02.685Z,64.17
2019-03-23T21:29:33.109Z,59.27
2019-03-23T21:32:03.597Z,54.77
2019-03-23T21:34:34.547Z,53.43
2019-03-23T21:37:04.927Z,54.20
2019-03-23T21:39:35.293Z,49.87
2019-03-23T21:42:05.958Z,47.90
2019-03-23T21:44:36.260Z,48.27
2019-03-23T21:47:06.605Z,47.43
2019-03-23T21:49:36.877Z,44.30
2019-03-23T21:52:07.217Z,43.97
2019-03-23T21:54:37.919Z,41.73
2019-03-23T21:57:08.898Z,42.83
2019-03-23T21:59:39.427Z,61.80
2019-03-23T22:02:09.938Z,46.83
2019-03-23T22:04:40.720Z,51.03
2019-03-23T22:07:10.968Z,48.30
2019-03-23T22:09:41.418Z,51.43
2019-03-23T22:12:12.248Z,46.00
2019-03-23T22:14:43.187Z,49.10
2019-03-23T22:17:13.539Z,50.20
2019-03-23T22:19:44.527Z,49.00
2019-03-23T22:22:14.872Z,51.13
2019-03-23T22:24:45.382Z,53.17
2019-03-23T22:27:15.979Z,45.93
2019-03-23T22:29:46.557Z,46.03
2019-03-23T22:32:16.836Z,45.33
2019-03-23T22:34:49.228Z,48.80
2019-03-23T22:37:20.567Z,43.23
2019-03-23T22:39:50.890Z,43.50
2019-03-23T22:42:21.519Z,47.13
2019-03-23T22:44:52.830Z,47.87
2019-03-23T22:47:23.202Z,46.30
2019-03-23T22:49:53.489Z,42.80
2019-03-23T22:52:23.755Z,45.50
2019-03-23T22:54:54.102Z,46.63
2019-03-23T22:57:24.730Z,45.93
2019-03-23T22:59:55.122Z,42.57
2019-03-23T23:02:25.464Z,45.23
2019-03-23T23:04:55.884Z,46.60
2019-03-23T23:07:26.834Z,48.80
2019-03-23T23:09:57.142Z,54.03
2019-03-23T23:12:27.393Z,57.60
2019-03-23T23:15:04.228Z,62.43
2019-03-23T23:17:30.610Z,60.60
2019-03-23T23:20:01.709Z,56.73
2019-03-23T23:22:32.201Z,53.63
2019-03-23T23:25:02.487Z,53.43
2019-03-23T23:27:34.287Z,53.83
2019-03-23T23:30:05.765Z,54.83
2019-03-23T23:32:36.273Z,52.23
2019-03-23T23:35:07.341Z,58.60
2019-03-23T23:37:37.730Z,61.77
2019-03-23T23:40:08.332Z,64.27
2019-03-23T23:42:38.777Z,57.27
2019-03-23T23:45:15.233Z,58.10
2019-03-23T23:47:41.733Z,57.53
2019-03-23T23:50:12.666Z,60.13
2019-03-23T23:52:43.592Z,76.07
2019-03-23T23:55:13.922Z,71.57
2019-03-23T23:57:44.531Z,61.43
